Time;durP1;ratioP1;P1;durP2;ratioP2;P2;SDS_P1;SDS_P2;PMS_P1;PMS_P2;Temp;Humidity;BMP_temperature;BMP_pressure;BME280_temperature;BME280_humidity;BME280_pressure;Samples;Min_cycle;Max_cycle;Signal;HPM_P1;HPM_P2
2021/10/05 00:02:07;;;;;;;4.28;2.20;;;20.90;80.30;;;;;;5073000;28;20466;-70
2021/10/05 00:04:34;;;;;;;3.47;2.10;;;21.20;81.00;;;;;;5071392;28;20029;-70
2021/10/05 00:07:02;;;;;;;2.10;1.90;;;21.10;78.80;;;;;;5072583;28;20035;-70
2021/10/05 00:09:29;;;;;;;2.20;1.98;;;21.20;80.20;;;;;;5072533;28;20044;-71
2021/10/05 00:11:57;;;;;;;2.30;2.10;;;21.30;78.20;;;;;;5072385;28;20032;-70
2021/10/05 00:14:24;;;;;;;2.80;2.00;;;21.30;77.10;;;;;;5072477;28;20029;-71
2021/10/05 00:16:51;;;;;;;3.03;2.33;;;21.10;77.60;;;;;;5072167;28;20045;-71
2021/10/05 00:19:19;;;;;;;2.13;1.83;;;21.10;77.00;;;;;;5072335;28;20028;-71
2021/10/05 00:21:46;;;;;;;2.30;2.08;;;20.70;76.20;;;;;;5072336;28;20393;-70
2021/10/05 00:24:13;;;;;;;3.53;2.10;;;20.80;77.10;;;;;;5072415;28;20021;-69
2021/10/05 00:26:41;;;;;;;2.50;2.10;;;20.80;75.90;;;;;;5072615;28;20016;-70
2021/10/05 00:29:08;;;;;;;4.03;2.42;;;20.70;76.40;;;;;;5072317;28;20055;-70
2021/10/05 00:31:35;;;;;;;2.20;2.00;;;21.00;76.30;;;;;;5072365;28;20024;-69
2021/10/05 00:34:03;;;;;;;2.75;2.40;;;20.90;76.20;;;;;;5072265;28;20021;-70
2021/10/05 00:36:30;;;;;;;2.58;2.30;;;21.10;76.40;;;;;;5071054;28;20036;-69
2021/10/05 00:38:57;;;;;;;2.97;2.50;;;21.00;75.70;;;;;;5072209;28;20021;-73
2021/10/05 00:41:25;;;;;;;2.55;2.35;;;20.90;74.90;;;;;;5072235;28;20025;-69
2021/10/05 00:43:52;;;;;;;3.42;2.58;;;20.80;75.50;;;;;;5072403;28;20469;-73
2021/10/05 00:46:21;;;;;;;3.63;2.13;;;21.00;75.90;;;;;;5072627;28;20028;-72
2021/10/05 00:48:49;;;;;;;2.67;2.30;;;21.00;75.80;;;;;;5075805;28;20028;-71
2021/10/05 00:51:17;;;;;;;3.88;2.22;;;21.10;74.90;;;;;;5074655;28;20031;-71
2021/10/05 00:53:44;;;;;;;2.63;1.90;;;21.00;74.80;;;;;;5074568;28;20020;-71
2021/10/05 00:56:11;;;;;;;2.55;2.10;;;21.00;75.90;;;;;;5075837;28;20020;-70
2021/10/05 00:58:39;;;;;;;6.55;2.00;;;21.00;76.00;;;;;;5074330;28;20039;-71
2021/10/05 01:01:06;;;;;;;3.08;2.10;;;21.10;75.40;;;;;;5074387;28;20389;-71
2021/10/05 01:03:34;;;;;;;4.07;2.03;;;21.40;75.40;;;;;;5075605;28;20460;-71
2021/10/05 01:06:02;;;;;;;3.35;2.17;;;21.70;74.50;;;;;;5075703;28;20021;-71
2021/10/05 01:08:32;;;;;;;2.22;1.98;;;21.70;74.30;;;;;;5075528;28;20016;-71
2021/10/05 01:11:00;;;;;;;2.67;2.47;;;21.50;74.30;;;;;;5074339;28;20024;-70
2021/10/05 01:13:28;;;;;;;3.22;2.30;;;21.60;74.80;;;;;;5075549;28;20392;-70
2021/10/05 01:15:55;;;;;;;2.67;2.20;;;21.60;74.00;;;;;;5075370;28;20060;-70
2021/10/05 01:18:23;;;;;;;4.15;2.50;;;21.50;74.30;;;;;;5075407;28;20115;-70
2021/10/05 01:21:02;;;;;;;2.60;2.40;;;21.50;73.20;;;;;;5075343;28;20032;-69
2021/10/05 01:23:33;;;;;;;2.90;2.40;;;21.40;74.10;;;;;;5075123;28;20024;-70
2021/10/05 01:26:02;;;;;;;2.85;2.20;;;21.20;74.20;;;;;;5075272;28;20038;-70
2021/10/05 01:28:30;;;;;;;3.03;2.03;;;21.10;80.00;;;;;;5073817;28;20025;-71
2021/10/05 01:30:58;;;;;;;2.38;1.90;;;21.10;72.80;;;;;;5075306;28;20029;-70
2021/10/05 01:33:27;;;;;;;2.00;1.90;;;21.40;71.60;;;;;;5075168;28;20393;-70
2021/10/05 01:35:55;;;;;;;2.20;2.00;;;21.60;70.90;;;;;;5073879;28;20025;-71
2021/10/05 01:38:23;;;;;;;2.20;2.00;;;21.90;70.30;;;;;;5075010;28;20370;-71
2021/10/05 01:40:51;;;;;;;2.10;2.00;;;21.70;68.90;;;;;;5075154;28;20511;-70
2021/10/05 01:43:18;;;;;;;2.05;1.95;;;21.30;64.00;;;;;;5074971;28;20031;-71
2021/10/05 01:45:46;;;;;;;2.03;1.85;;;21.50;63.70;;;;;;5073519;28;20032;-71
2021/10/05 01:48:13;;;;;;;3.83;1.70;;;21.60;63.30;;;;;;5074884;28;20366;-69
2021/10/05 01:50:41;;;;;;;2.67;1.60;;;21.70;64.00;;;;;;5073738;28;20025;-71
2021/10/05 01:53:08;;;;;;;1.70;1.60;;;21.40;64.10;;;;;;5073484;28;20025;-72
2021/10/05 01:55:35;;;;;;;3.42;1.80;;;21.70;64.80;;;;;;5074909;28;20262;-72
2021/10/05 01:58:03;;;;;;;3.17;2.10;;;22.10;64.90;;;;;;5073912;28;20017;-71
2021/10/05 02:00:30;;;;;;;2.05;1.50;;;22.00;62.60;;;;;;5074596;28;20083;-70
2021/10/05 02:02:58;;;;;;;1.50;1.40;;;21.70;62.90;;;;;;5074565;28;20488;-71
2021/10/05 02:05:25;;;;;;;2.42;1.60;;;21.30;63.00;;;;;;5074405;28;20020;-72
2021/10/05 02:07:52;;;;;;;1.38;1.27;;;21.40;63.40;;;;;;5074678;28;20084;-72
2021/10/05 02:10:20;;;;;;;2.20;2.10;;;21.60;63.90;;;;;;5074480;28;20050;-72
2021/10/05 02:12:47;;;;;;;3.45;2.30;;;21.40;64.20;;;;;;5073036;28;20036;-72
2021/10/05 02:15:14;;;;;;;2.35;2.25;;;21.70;64.00;;;;;;5072912;28;20028;-72
2021/10/05 02:17:42;;;;;;;2.33;2.00;;;21.70;62.80;;;;;;5073419;28;20025;-73
2021/10/05 02:20:10;;;;;;;1.92;1.90;;;21.80;62.30;;;;;;5074359;28;20033;-73
2021/10/05 02:22:37;;;;;;;1.95;1.90;;;21.90;61.10;;;;;;5074391;28;20027;-72
2021/10/05 02:25:05;;;;;;;2.00;1.90;;;21.70;62.50;;;;;;5074299;28;20464;-71
2021/10/05 02:27:33;;;;;;;2.03;1.92;;;21.80;61.10;;;;;;5074053;28;20417;-72
2021/10/05 02:30:00;;;;;;;2.10;1.92;;;22.00;62.30;;;;;;5074022;28;20103;-72
2021/10/05 02:32:28;;;;;;;2.25;1.90;;;22.10;59.30;;;;;;5072699;28;20032;-72
2021/10/05 02:34:56;;;;;;;5.20;2.03;;;22.00;59.20;;;;;;5072794;28;20060;-72
2021/10/05 02:37:29;;;;;;;1.48;1.38;;;22.20;58.30;;;;;;5072642;28;20393;-71
2021/10/05 02:39:57;;;;;;;3.15;1.70;;;22.50;58.30;;;;;;5072590;28;20435;-71
2021/10/05 02:42:25;;;;;;;1.80;1.60;;;22.50;58.40;;;;;;5072518;28;20063;-73
2021/10/05 02:44:53;;;;;;;2.10;1.90;;;22.20;57.70;;;;;;5073966;28;20500;-73
2021/10/05 02:47:22;;;;;;;1.80;1.70;;;22.10;58.10;;;;;;5073751;28;20021;-72
2021/10/05 02:49:50;;;;;;;1.80;1.70;;;21.80;57.90;;;;;;5073945;28;20051;-71
2021/10/05 02:52:21;;;;;;;6.22;2.05;;;22.10;58.40;;;;;;5072367;28;20116;-72
2021/10/05 02:54:49;;;;;;;1.90;1.80;;;22.50;58.20;;;;;;5073638;28;20028;-72
2021/10/05 02:57:19;;;;;;;2.10;2.00;;;22.20;57.60;;;;;;5073650;28;20031;-72
2021/10/05 02:59:47;;;;;;;2.95;2.10;;;22.20;57.50;;;;;;5072174;28;20396;-73
2021/10/05 03:02:15;;;;;;;3.40;2.30;;;22.50;59.50;;;;;;5072164;28;20029;-73
2021/10/05 03:04:42;;;;;;;2.20;2.10;;;22.60;56.00;;;;;;5073413;28;20087;-73
2021/10/05 03:07:09;;;;;;;2.47;2.38;;;22.40;56.90;;;;;;5073454;28;20104;-73
2021/10/05 03:09:37;;;;;;;2.63;2.42;;;22.60;57.30;;;;;;5072983;28;20099;-73
2021/10/05 03:12:05;;;;;;;2.42;2.30;;;22.70;58.10;;;;;;5072003;28;20032;-73
2021/10/05 03:14:32;;;;;;;2.28;2.17;;;23.00;57.90;;;;;;5073246;28;20084;-73
2021/10/05 03:16:59;;;;;;;3.10;2.17;;;22.80;56.90;;;;;;5071637;28;20055;-73
2021/10/05 03:19:27;;;;;;;2.58;2.10;;;23.30;56.20;;;;;;5073151;28;20028;-73
2021/10/05 03:21:56;;;;;;;4.90;2.78;;;23.00;59.00;;;;;;5073227;28;20047;-73
2021/10/05 03:24:24;;;;;;;3.17;2.10;;;;;;;;;;5072351;28;20433;-73
2021/10/05 03:26:52;;;;;;;3.05;2.00;;;;;;;;;;5071860;28;20020;-73
2021/10/05 03:29:19;;;;;;;1.80;1.70;;;22.90;74.90;;;;;;5073128;28;20034;-73
2021/10/05 03:31:47;;;;;;;3.25;1.98;;;23.30;73.00;;;;;;5073002;28;20046;-72
2021/10/05 03:34:14;;;;;;;2.55;1.90;;;23.20;72.20;;;;;;5072997;28;20070;-73
2021/10/05 03:36:41;;;;;;;3.63;2.15;;;23.50;74.60;;;;;;5073028;28;20020;-73
2021/10/05 03:39:09;;;;;;;2.28;1.77;;;23.50;71.50;;;;;;5071536;28;20101;-73
2021/10/05 03:41:36;;;;;;;1.88;1.77;;;23.40;68.00;;;;;;5072930;28;20078;-72
2021/10/05 03:44:04;;;;;;;2.88;2.00;;;23.00;63.90;;;;;;5072973;28;20473;-72
2021/10/05 03:46:31;;;;;;;2.65;1.80;;;23.10;63.30;;;;;;5071646;28;20501;-73
2021/10/05 03:48:59;;;;;;;2.05;1.92;;;23.50;63.90;;;;;;5072826;28;20023;-73
2021/10/05 03:51:26;;;;;;;2.38;2.00;;;24.00;64.90;;;;;;5072978;28;20051;-72
2021/10/05 03:53:53;;;;;;;2.30;2.10;;;24.00;63.00;;;;;;5072882;28;20025;-72
2021/10/05 03:56:21;;;;;;;2.67;2.25;;;23.70;66.00;;;;;;5072816;28;20069;-72
2021/10/05 03:58:48;;;;;;;2.40;2.20;;;23.30;64.60;;;;;;5072784;28;20074;-73
2021/10/05 04:01:15;;;;;;;3.03;2.40;;;23.40;65.70;;;;;;5072774;28;20500;-72
2021/10/05 04:03:43;;;;;;;3.45;2.35;;;23.90;66.80;;;;;;5072595;28;20017;-73
2021/10/05 04:06:11;;;;;;;2.75;2.55;;;23.70;65.90;;;;;;5071438;28;20021;-73
2021/10/05 04:08:38;;;;;;;2.60;2.30;;;23.40;67.40;;;;;;5071479;28;20020;-73
2021/10/05 04:11:06;;;;;;;2.95;2.42;;;23.30;67.00;;;;;;5072685;28;20025;-73
2021/10/05 04:13:33;;;;;;;3.25;2.33;;;23.20;67.40;;;;;;5071323;28;20032;-73
2021/10/05 04:16:00;;;;;;;3.70;2.53;;;23.20;67.80;;;;;;5072475;28;20044;-72
2021/10/05 04:18:29;;;;;;;2.35;2.22;;;22.80;67.90;;;;;;5072558;28;20027;-73
2021/10/05 04:21:00;;;;;;;4.57;2.22;;;22.80;68.10;;;;;;5072528;28;20104;-74
2021/10/05 04:23:27;;;;;;;3.03;2.40;;;23.20;70.00;;;;;;5075365;28;20392;-73
2021/10/05 04:25:55;;;;;;;2.40;2.30;;;23.70;69.10;;;;;;5076729;28;20021;-74
2021/10/05 04:28:22;;;;;;;3.90;2.70;;;23.60;69.00;;;;;;5076300;28;20441;-71
2021/10/05 04:30:50;;;;;;;2.90;2.40;;;23.90;69.40;;;;;;5076168;28;20016;-72
2021/10/05 04:33:17;;;;;;;2.90;2.60;;;23.70;68.80;;;;;;5076331;28;20431;-73
2021/10/05 04:35:44;;;;;;;3.70;2.50;;;23.50;69.60;;;;;;5076246;28;20020;-73
2021/10/05 04:38:12;;;;;;;2.97;2.55;;;23.40;68.70;;;;;;5076210;28;20020;-74
2021/10/05 04:40:39;;;;;;;3.15;2.53;;;23.10;69.90;;;;;;5074792;28;20020;-72
2021/10/05 04:43:06;;;;;;;2.97;2.60;;;23.00;68.70;;;;;;5076040;28;20020;-73
2021/10/05 04:45:33;;;;;;;3.85;2.47;;;22.70;68.50;;;;;;5076170;28;20471;-72
2021/10/05 04:48:05;;;;;;;4.00;2.67;;;;;;;;;;5075965;28;20099;-72
2021/10/05 04:50:32;;;;;;;2.60;2.15;;;22.40;67.10;;;;;;5076054;28;20025;-73
2021/10/05 04:52:59;;;;;;;4.22;2.58;;;22.50;66.90;;;;;;5075896;28;20488;-71
2021/10/05 04:55:27;;;;;;;5.22;2.78;;;22.70;67.30;;;;;;5074419;28;20032;-72
2021/10/05 04:57:54;;;;;;;3.03;2.40;;;22.40;69.00;;;;;;5075734;28;20040;-72
2021/10/05 05:00:22;;;;;;;2.38;2.17;;;22.40;69.30;;;;;;5075578;28;20020;-75
2021/10/05 05:02:49;;;;;;;3.58;2.42;;;22.50;70.40;;;;;;5075595;28;20021;-74
2021/10/05 05:05:16;;;;;;;3.97;2.20;;;;;;;;;;5075508;28;20017;-73
2021/10/05 05:07:44;;;;;;;3.70;2.00;;;;;;;;;;5075640;28;20039;-73
2021/10/05 05:10:11;;;;;;;2.38;2.10;;;;;;;;;;5074168;28;20416;-73
2021/10/05 05:12:38;;;;;;;4.22;2.80;;;;;;;;;;5075443;28;20017;-73
2021/10/05 05:15:06;;;;;;;2.60;2.40;;;;;;;;;;5075139;28;20028;-75
2021/10/05 05:17:33;;;;;;;2.67;2.25;;;;;;;;;;5075517;28;20020;-75
2021/10/05 05:20:00;;;;;;;3.22;2.30;;;;;;;;;;5073954;28;20024;-74
2021/10/05 05:22:27;;;;;;;2.28;2.00;;;;;;;;;;5075275;28;20146;-73
2021/10/05 05:24:54;;;;;;;3.33;2.38;;;;;;;;;;5075162;28;20108;-74
2021/10/05 05:27:22;;;;;;;3.40;2.50;;;;;;;;;;5075196;28;20017;-73
2021/10/05 05:29:51;;;;;;;2.80;2.40;;;;;;;;;;5073984;28;20036;-73
2021/10/05 05:32:18;;;;;;;3.60;1.95;;;;;;;;;;5073551;28;20031;-73
2021/10/05 05:34:45;;;;;;;3.33;2.28;;;;;;;;;;5072772;28;20059;-73
2021/10/05 05:37:12;;;;;;;3.20;2.10;;;;;;;;;;5075093;28;20031;-73
2021/10/05 05:39:41;;;;;;;2.70;1.73;;;;;;;;;;5075006;28;20432;-72
2021/10/05 05:42:08;;;;;;;2.38;2.10;;;;;;;;;;5074908;28;20054;-73
2021/10/05 05:44:35;;;;;;;3.17;2.13;;;;;;;;;;5074837;28;20469;-72
2021/10/05 05:47:03;;;;;;;3.25;2.15;;;;;;;;;;5075243;28;20091;-74
2021/10/05 05:49:30;;;;;;;4.22;2.38;;;;;;;;;;5074861;28;20025;-73
2021/10/05 05:51:57;;;;;;;2.83;2.40;;;;;;;;;;5073141;28;20035;-73
2021/10/05 05:54:24;;;;;;;2.78;2.25;;;;;;;;;;5074786;28;20017;-73
2021/10/05 05:56:52;;;;;;;4.85;2.78;;;;;;;;;;5073382;28;20040;-73
2021/10/05 05:59:19;;;;;;;3.25;2.47;;;;;;;;;;5074692;28;20052;-72
2021/10/05 06:01:46;;;;;;;3.10;2.30;;;;;;;;;;5073221;28;20082;-73
2021/10/05 06:04:13;;;;;;;2.53;2.33;;;;;;;;;;5074547;28;20481;-73
2021/10/05 06:06:40;;;;;;;3.58;2.60;;;;;;;;;;5074666;28;20020;-73
2021/10/05 06:09:08;;;;;;;3.08;2.60;;;;;;;;;;5074772;28;20104;-73
2021/10/05 06:11:38;;;;;;;4.93;2.75;;;;;;;;;;5074367;28;20025;-73
2021/10/05 06:14:05;;;;;;;5.00;2.83;;;;;;;;;;5073126;28;20036;-73
2021/10/05 06:16:32;;;;;;;2.60;2.40;;;;;;;;;;5074052;28;20048;-72
2021/10/05 06:19:00;;;;;;;3.65;2.70;;;21.60;69.50;;;;;;5072882;28;20076;-73
2021/10/05 06:21:27;;;;;;;3.53;2.67;;;21.50;69.30;;;;;;5074203;28;20419;-73
2021/10/05 06:23:54;;;;;;;4.85;2.78;;;21.80;69.10;;;;;;5074040;28;20024;-73
2021/10/05 06:26:22;;;;;;;3.22;2.50;;;21.90;69.60;;;;;;5074024;28;20393;-72
2021/10/05 06:28:49;;;;;;;6.53;3.38;;;22.10;70.80;;;;;;5074012;28;20026;-72
2021/10/05 06:31:17;;;;;;;5.53;3.08;;;22.00;70.50;;;;;;5073926;28;20016;-72
2021/10/05 06:33:44;;;;;;;4.78;2.75;;;;;;;;;;5072572;28;20035;-73
2021/10/05 06:36:11;;;;;;;3.65;2.55;;;;;;;;;;5073675;28;20435;-72
2021/10/05 06:38:38;;;;;;;4.25;2.60;;;;;;;;;;5073726;28;20078;-72
2021/10/05 06:41:05;;;;;;;3.63;2.75;;;;;;;;;;5073925;28;20020;-72
2021/10/05 06:43:32;;;;;;;3.28;2.70;;;;;;;;;;5073782;28;20047;-72
2021/10/05 06:46:00;;;;;;;5.07;2.67;;;;;;;;;;5073299;28;20020;-73
2021/10/05 06:48:27;;;;;;;3.13;2.90;;;;;;;;;;5073734;28;20480;-72
2021/10/05 06:50:54;;;;;;;3.17;2.80;;;;;;;;;;5073618;28;20020;-73
2021/10/05 06:53:21;;;;;;;2.65;2.03;;;;;;;;;;5073624;28;20018;-73
2021/10/05 06:55:50;;;;;;;2.97;2.50;;;;;;;;;;5073510;28;20095;-73
2021/10/05 06:58:17;;;;;;;5.13;2.22;;;;;;;;;;5073359;28;20483;-71
2021/10/05 07:00:45;;;;;;;5.45;2.30;;;;;;;;;;5073387;28;20027;-72
2021/10/05 07:03:12;;;;;;;4.07;2.72;;;;;;;;;;5073513;28;20025;-73
2021/10/05 07:05:39;;;;;;;3.97;2.92;;;;;;;;;;5071993;28;20113;-74
2021/10/05 07:08:10;;;;;;;4.18;2.88;;;;;;;;;;5073411;28;20027;-72
2021/10/05 07:10:38;;;;;;;5.85;3.00;;;;;;;;;;5073257;28;20099;-72
2021/10/05 07:13:06;;;;;;;4.05;3.10;;;;;;;;;;5073287;28;20024;-73
2021/10/05 07:15:33;;;;;;;5.65;3.00;;;;;;;;;;5071584;28;20444;-72
2021/10/05 07:18:00;;;;;;;5.97;3.10;;;;;;;;;;5073167;28;20048;-73
2021/10/05 07:20:28;;;;;;;5.80;3.25;;;;;;;;;;5072995;28;20036;-73
2021/10/05 07:22:56;;;;;;;5.80;3.10;;;;;;;;;;5072986;28;20440;-72
2021/10/05 07:25:24;;;;;;;3.95;3.20;;;;;;;;;;5073026;28;20040;-74
2021/10/05 07:27:51;;;;;;;7.28;3.13;;;;;;;;;;5071580;28;20024;-74
2021/10/05 07:30:25;;;;;;;5.60;3.15;;;;;;;;;;5072903;28;20017;-74
2021/10/05 07:32:54;;;;;;;4.18;3.10;;;;;;;;;;5072896;28;20040;-74
2021/10/05 07:35:21;;;;;;;6.65;3.20;;;;;;;;;;5072917;28;20036;-73
2021/10/05 07:37:48;;;;;;;4.97;3.10;;;;;;;;;;5072863;28;20028;-73
2021/10/05 07:40:18;;;;;;;4.45;2.97;;;;;;;;;;5072713;28;20025;-74
2021/10/05 07:42:45;;;;;;;6.63;3.20;;;;;;;;;;5071553;28;20028;-73
2021/10/05 07:45:13;;;;;;;6.90;3.47;;;;;;;;;;5072719;28;20466;-74
2021/10/05 07:47:40;;;;;;;6.40;3.13;;;;;;;;;;5071632;28;20020;-75
2021/10/05 07:50:08;;;;;;;7.00;3.47;;;;;;;;;;5071246;28;20411;-73
2021/10/05 07:52:35;;;;;;;10.18;3.95;;;;;;;;;;5072610;28;20111;-74
2021/10/05 07:55:03;;;;;;;7.88;3.75;;;18.80;80.60;;;;;;5072606;28;20021;-75
2021/10/05 07:57:30;;;;;;;8.05;3.20;;;18.70;73.30;;;;;;5070456;28;20028;-74
2021/10/05 07:59:58;;;;;;;7.80;4.15;;;18.70;74.30;;;;;;5071146;28;20024;-74
2021/10/05 08:02:25;;;;;;;8.65;3.50;;;;;;;;;;5072554;28;20017;-73
2021/10/05 08:04:53;;;;;;;5.70;3.70;;;;;;;;;;5072541;28;20017;-73
2021/10/05 08:07:21;;;;;;;7.65;3.53;;;;;;;;;;5071200;28;20025;-74
2021/10/05 08:09:48;;;;;;;6.70;3.45;;;;;;;;;;5072595;28;20085;-74
2021/10/05 08:12:15;;;;;;;8.60;3.65;;;;;;;;;;5071204;28;20103;-73
2021/10/05 08:14:42;;;;;;;7.35;3.47;;;18.30;81.60;;;;;;5072445;28;20033;-73
2021/10/05 08:17:11;;;;;;;5.55;3.08;;;18.20;78.00;;;;;;5071138;28;20501;-73
2021/10/05 08:19:38;;;;;;;8.27;3.40;;;;;;;;;;5072401;28;20473;-73
2021/10/05 08:22:06;;;;;;;5.80;3.38;;;18.20;76.70;;;;;;5074114;28;20099;-72
2021/10/05 08:24:35;;;;;;;7.35;3.47;;;18.10;77.70;;;;;;5078125;28;20020;-73
2021/10/05 08:27:05;;;;;;;6.53;3.30;;;;;;;;;;5072372;28;20484;-73
2021/10/05 08:29:40;;;;;;;8.48;3.63;;;18.00;79.20;;;;;;5071116;28;20028;-73
2021/10/05 08:32:08;;;;;;;11.10;3.75;;;18.00;80.40;;;;;;5070947;28;20479;-74
2021/10/05 08:34:37;;;;;;;5.32;3.60;;;17.90;76.30;;;;;;5071075;28;20035;-73
2021/10/05 08:37:05;;;;;;;10.95;3.95;;;17.80;77.00;;;;;;5070915;28;20404;-74
2021/10/05 08:39:33;;;;;;;7.97;3.58;;;17.70;77.00;;;;;;5070869;28;20408;-73
2021/10/05 08:42:01;;;;;;;7.55;4.35;;;17.70;77.20;;;;;;5071245;28;20025;-73
2021/10/05 08:44:29;;;;;;;8.05;3.92;;;17.80;77.00;;;;;;5070922;28;20017;-73
2021/10/05 08:46:56;;;;;;;8.98;4.05;;;17.70;77.60;;;;;;5070852;28;20087;-72
2021/10/05 08:49:24;;;;;;;7.03;3.83;;;17.70;77.60;;;;;;5072230;28;20052;-73
2021/10/05 08:51:53;;;;;;;6.15;4.00;;;17.60;78.30;;;;;;5072219;28;20108;-72
2021/10/05 08:54:21;;;;;;;6.63;3.60;;;17.60;79.50;;;;;;5070879;28;20030;-74
2021/10/05 08:56:49;;;;;;;6.40;3.97;;;;;;;;;;5072276;28;20052;-72
2021/10/05 08:59:16;;;;;;;6.65;3.75;;;;;;;;;;5071051;28;20115;-74
2021/10/05 09:01:43;;;;;;;6.53;3.67;;;;;;;;;;5070945;28;20103;-73
2021/10/05 09:04:11;;;;;;;6.68;4.18;;;;;;;;;;5070976;28;20063;-72
2021/10/05 09:06:40;;;;;;;7.13;3.60;;;;;;;;;;5072564;28;20059;-73
2021/10/05 09:09:07;;;;;;;5.63;3.65;;;17.30;80.80;;;;;;5075649;28;20031;-72
2021/10/05 09:11:43;;;;;;;7.75;3.67;;;;;;;;;;5075747;28;20142;-72
2021/10/05 09:14:11;;;;;;;11.35;4.18;;;;;;;;;;5075693;28;20025;-72
2021/10/05 09:16:38;;;;;;;8.38;3.58;;;;;;;;;;5075415;28;20045;-73
2021/10/05 09:19:06;;;;;;;5.70;3.20;;;;;;;;;;5075289;28;20408;-73
2021/10/05 09:21:47;;;;;;;8.35;3.75;;;;;;;;;;5075344;28;20086;-72
2021/10/05 09:24:32;;;;;;;8.80;3.53;;;;;;;;;;5075351;28;20381;-72
2021/10/05 09:27:00;;;;;;;7.60;3.55;;;;;;;;;;5075470;28;20146;-71
2021/10/05 09:29:29;;;;;;;7.03;3.88;;;;;;;;;;5073809;28;20396;-72
2021/10/05 09:32:01;;;;;;;6.40;3.15;;;;;;;;;;5075124;28;20020;-71
2021/10/05 09:34:37;;;;;;;11.35;4.80;;;;;;;;;;5074949;28;20050;-73
2021/10/05 09:37:16;;;;;;;8.60;3.60;;;;;;;;;;5075054;28;20070;-71
2021/10/05 09:39:47;;;;;;;7.07;3.75;;;;;;;;;;5073631;28;20028;-71
2021/10/05 09:42:24;;;;;;;10.98;4.45;;;;;;;;;;5075049;28;20025;-72
2021/10/05 09:44:59;;;;;;;7.03;3.65;;;;;;;;;;5073645;28;20017;-72
2021/10/05 09:47:36;;;;;;;8.52;4.32;;;;;;;;;;5073463;28;20028;-72
2021/10/05 09:50:24;;;;;;;10.85;4.25;;;;;;;;;;5073403;28;20094;-73
2021/10/05 09:52:53;;;;;;;5.50;4.10;;;;;;;;;;5075017;28;20040;-73
2021/10/05 09:55:21;;;;;;;7.70;4.20;;;;;;;;;;5074762;28;20496;-72
2021/10/05 09:57:49;;;;;;;9.45;3.83;;;;;;;;;;5074702;28;20052;-73
2021/10/05 10:00:17;;;;;;;7.20;3.97;;;;;;;;;;5074645;28;20031;-72
2021/10/05 10:02:45;;;;;;;7.32;3.53;;;16.80;78.20;;;;;;5074573;28;20090;-71
2021/10/05 10:05:21;;;;;;;9.75;3.65;;;16.80;78.90;;;;;;5074464;28;20431;-73
2021/10/05 10:07:50;;;;;;;7.57;3.78;;;16.80;79.50;;;;;;5074451;28;20023;-73
2021/10/05 10:10:22;;;;;;;7.78;3.65;;;;;;;;;;5074497;28;20024;-73
2021/10/05 10:12:59;;;;;;;6.10;3.58;;;16.70;79.40;;;;;;5074499;28;20385;-72
2021/10/05 10:15:33;;;;;;;8.60;3.58;;;16.60;73.90;;;;;;5072854;28;20058;-73
2021/10/05 10:18:12;;;;;;;7.20;3.60;;;16.60;73.70;;;;;;5074545;28;20339;-72
2021/10/05 10:20:42;;;;;;;5.65;3.08;;;16.60;73.80;;;;;;5072176;28;20028;-74
2021/10/05 10:23:19;;;;;;;10.18;3.42;;;16.60;74.40;;;;;;5074174;28;20044;-74
2021/10/05 10:26:04;;;;;;;7.57;3.88;;;16.60;74.50;;;;;;5072809;28;20459;-74
2021/10/05 10:28:32;;;;;;;7.00;3.50;;;16.80;75.00;;;;;;5072743;28;20074;-73
2021/10/05 10:31:05;;;;;;;6.47;3.80;;;16.40;75.10;;;;;;5073965;28;20021;-74
2021/10/05 10:33:53;;;;;;;7.10;3.80;;;16.40;75.10;;;;;;5072634;28;20027;-73
2021/10/05 10:36:44;;;;;;;7.88;4.05;;;16.40;75.60;;;;;;5072533;28;20116;-73
2021/10/05 10:39:16;;;;;;;6.20;3.83;;;16.30;75.50;;;;;;5073820;28;20021;-73
2021/10/05 10:42:07;;;;;;;8.10;4.32;;;16.30;76.10;;;;;;5073904;28;20066;-73
2021/10/05 10:44:37;;;;;;;7.10;3.92;;;16.20;76.80;;;;;;5073660;28;20043;-73
2021/10/05 10:47:08;;;;;;;9.43;3.85;;;16.20;77.00;;;;;;5072455;28;20393;-71
2021/10/05 10:49:35;;;;;;;11.70;4.00;;;16.10;77.90;;;;;;5073808;28;20021;-73
2021/10/05 10:52:03;;;;;;;7.57;3.60;;;16.10;85.40;;;;;;5073542;28;20078;-72
2021/10/05 10:54:30;;;;;;;8.68;4.10;;;16.10;75.90;;;;;;5073353;28;20058;-71
2021/10/05 10:57:04;;;;;;;7.15;3.60;;;16.10;76.30;;;;;;5073394;28;20033;-72
2021/10/05 10:59:33;;;;;;;6.57;3.70;;;16.00;76.10;;;;;;5072067;28;20031;-72
2021/10/05 11:02:06;;;;;;;7.28;3.63;;;16.00;76.50;;;;;;5073532;28;20020;-72
2021/10/05 11:04:35;;;;;;;7.47;4.03;;;16.00;76.70;;;;;;5073519;28;20158;-72
2021/10/05 11:07:02;;;;;;;9.90;4.18;;;15.90;77.30;;;;;;5073303;28;20029;-72
2021/10/05 11:09:34;;;;;;;6.85;3.70;;;15.90;77.10;;;;;;5073228;28;20075;-72
2021/10/05 11:12:08;;;;;;;8.43;4.05;;;15.90;77.70;;;;;;5073122;28;20025;-72
2021/10/05 11:14:44;;;;;;;7.60;3.70;;;15.80;77.60;;;;;;5073159;28;20107;-72
2021/10/05 11:17:12;;;;;;;7.90;3.92;;;15.80;78.00;;;;;;5071683;28;20049;-73
2021/10/05 11:19:41;;;;;;;8.52;3.65;;;15.80;78.50;;;;;;5072952;28;20017;-72
2021/10/05 11:22:14;;;;;;;7.90;3.88;;;15.80;78.40;;;;;;5073046;28;20021;-72
2021/10/05 11:24:45;;;;;;;7.78;4.10;;;15.70;78.60;;;;;;5071673;28;20525;-72
2021/10/05 11:27:16;;;;;;;;;;;15.70;78.70;;;;;;5073396;28;20496;-72
2021/10/05 11:29:44;;;;;;;7.55;3.90;;;15.70;79.00;;;;;;5071783;28;19958;-72
2021/10/05 11:32:14;;;;;;;9.43;4.10;;;15.60;79.20;;;;;;5072765;28;20384;-73
2021/10/05 11:34:44;;;;;;;8.60;4.10;;;15.60;79.10;;;;;;5071580;28;20024;-72
2021/10/05 11:37:14;;;;;;;7.93;4.10;;;15.60;79.20;;;;;;5072729;28;20028;-72
2021/10/05 11:39:43;;;;;;;9.52;4.07;;;15.60;79.50;;;;;;5072685;28;20025;-72
2021/10/05 11:42:17;;;;;;;7.10;3.80;;;15.50;79.60;;;;;;5072833;28;20013;-72
2021/10/05 11:44:59;;;;;;;7.32;4.20;;;15.50;80.00;;;;;;5072727;28;20061;-72
2021/10/05 11:47:28;;;;;;;9.75;4.40;;;15.50;80.10;;;;;;5071445;28;20048;-72
2021/10/05 11:50:07;;;;;;;9.05;4.55;;;15.50;80.20;;;;;;5072626;28;20104;-71
2021/10/05 11:52:39;;;;;;;7.88;3.95;;;15.50;80.40;;;;;;5072727;28;20488;-72
2021/10/05 11:55:07;;;;;;;9.18;4.05;;;15.40;80.30;;;;;;5072596;28;20028;-71
2021/10/05 11:57:37;;;;;;;9.07;4.43;;;15.40;80.50;;;;;;5072516;28;20048;-72
2021/10/05 12:00:10;;;;;;;6.90;3.90;;;15.40;80.90;;;;;;5071188;28;20032;-71
2021/10/05 12:02:42;;;;;;;8.10;4.15;;;15.30;81.10;;;;;;5072178;28;20017;-72
2021/10/05 12:05:24;;;;;;;8.10;4.22;;;15.30;81.50;;;;;;5072450;28;20110;-72
2021/10/05 12:07:52;;;;;;;7.35;4.18;;;15.30;82.20;;;;;;5071362;28;20024;-72
2021/10/05 12:10:21;;;;;;;9.18;4.10;;;15.20;81.70;;;;;;5072466;28;20031;-72
2021/10/05 12:12:49;;;;;;;7.72;4.30;;;15.20;82.00;;;;;;5072507;28;20021;-72
2021/10/05 12:15:23;;;;;;;7.57;3.97;;;15.10;82.20;;;;;;5071062;28;20036;-72
2021/10/05 12:18:06;;;;;;;9.73;4.35;;;15.20;82.70;;;;;;5071095;28;20042;-72
2021/10/05 12:20:34;;;;;;;11.73;4.15;;;15.20;82.50;;;;;;5072357;28;20111;-72
2021/10/05 12:23:08;;;;;;;10.43;4.10;;;15.20;82.50;;;;;;5072423;28;20473;-72
2021/10/05 12:25:41;;;;;;;7.03;4.18;;;15.10;82.80;;;;;;5072544;28;20028;-71
2021/10/05 12:28:08;;;;;;;7.45;4.22;;;15.10;83.00;;;;;;5072352;28;20027;-72
2021/10/05 12:30:35;;;;;;;9.80;4.97;;;15.10;83.30;;;;;;5072244;28;20097;-71
2021/10/05 12:33:11;;;;;;;9.50;4.80;;;15.10;83.30;;;;;;5072254;28;20020;-71
2021/10/05 12:35:41;;;;;;;8.85;4.15;;;15.10;83.50;;;;;;5071065;28;20021;-71
2021/10/05 12:38:17;;;;;;;12.15;5.00;;;15.00;83.90;;;;;;5070875;28;20033;-72
2021/10/05 12:40:50;;;;;;;7.85;4.22;;;15.00;84.00;;;;;;5072272;28;20031;-72
2021/10/05 12:43:23;;;;;;;10.75;3.83;;;14.90;84.20;;;;;;5072995;28;20020;-72
2021/10/05 12:45:56;;;;;;;7.75;3.80;;;14.90;85.30;;;;;;5074913;28;20021;-72
2021/10/05 12:48:40;;;;;;;9.70;4.18;;;14.90;84.70;;;;;;5075960;28;20026;-71
2021/10/05 12:51:20;;;;;;;8.77;4.10;;;14.90;84.80;;;;;;5075896;28;20099;-72
2021/10/05 12:53:50;;;;;;;7.32;4.15;;;14.90;84.80;;;;;;5075884;28;20051;-71
2021/10/05 12:56:36;;;;;;;6.43;3.67;;;14.90;85.20;;;;;;5075853;28;20027;-72
2021/10/05 12:59:05;;;;;;;7.07;4.00;;;14.90;85.20;;;;;;5075644;28;20078;-72
2021/10/05 13:01:38;;;;;;;9.20;3.90;;;14.90;85.50;;;;;;5075767;28;20013;-72
2021/10/05 13:04:07;;;;;;;7.18;3.58;;;14.90;85.40;;;;;;5075700;28;20171;-72
2021/10/05 13:06:36;;;;;;;8.40;4.30;;;14.90;85.70;;;;;;5075616;28;20017;-72
2021/10/05 13:09:08;;;;;;;8.40;3.92;;;14.90;85.70;;;;;;5075514;28;20073;-72
2021/10/05 13:11:37;;;;;;;7.78;4.00;;;14.90;86.00;;;;;;5075495;28;20028;-72
2021/10/05 13:14:05;;;;;;;9.00;3.58;;;14.90;85.80;;;;;;5075490;28;20056;-72
2021/10/05 13:16:33;;;;;;;8.55;4.05;;;14.80;86.20;;;;;;5075322;28;20105;-72
2021/10/05 13:19:00;;;;;;;8.60;3.97;;;14.80;86.30;;;;;;5075232;28;20028;-72
2021/10/05 13:21:27;;;;;;;9.10;3.53;;;14.90;86.30;;;;;;5074011;28;20473;-72
2021/10/05 13:23:55;;;;;;;6.28;3.90;;;14.80;86.60;;;;;;5075289;28;20017;-71
2021/10/05 13:26:22;;;;;;;8.43;3.97;;;14.80;86.70;;;;;;5075331;28;20017;-72
2021/10/05 13:28:49;;;;;;;8.95;4.68;;;14.80;87.00;;;;;;5075252;28;20433;-71